Time;durP1;ratioP1;P1;durP2;ratioP2;P2;SDS_P1;SDS_P2;PMS_P1;PMS_P2;Temp;Humidity;BMP_temperature;BMP_pressure;BME280_temperature;BME280_humidity;BME280_pressure;Samples;Min_cycle;Max_cycle;Signal;HPM_P1;HPM_P2
2021/01/25 00:00:57;;;;;;;5.80;4.50;;;-0.80;99.90;;;;;;5029898;28;20236;-72
2021/01/25 00:03:23;;;;;;;6.25;4.53;;;-0.70;99.90;;;;;;5029964;28;20224;-71
2021/01/25 00:05:50;;;;;;;8.82;4.82;;;-0.70;99.90;;;;;;5030524;28;20232;-70
2021/01/25 00:08:17;;;;;;;9.43;4.97;;;-0.80;99.90;;;;;;5031270;28;20217;-72
2021/01/25 00:10:43;;;;;;;5.85;5.03;;;-0.80;99.90;;;;;;5031124;28;20206;-71
2021/01/25 00:13:10;;;;;;;10.13;6.05;;;-0.90;99.90;;;;;;5030778;28;20209;-71
2021/01/25 00:15:36;;;;;;;9.88;6.30;;;-0.90;99.90;;;;;;5030990;28;20229;-71
2021/01/25 00:18:03;;;;;;;10.00;6.07;;;-0.90;99.90;;;;;;5030311;28;20197;-70
2021/01/25 00:20:29;;;;;;;8.77;6.05;;;-1.00;99.90;;;;;;5030659;28;20206;-70
2021/01/25 00:22:55;;;;;;;7.55;5.90;;;-1.00;99.90;;;;;;5029533;28;20209;-71
2021/01/25 00:25:22;;;;;;;6.80;5.25;;;-1.00;99.90;;;;;;5029715;28;20222;-72
2021/01/25 00:27:49;;;;;;;7.00;5.95;;;-1.10;99.90;;;;;;5029942;28;20217;-73
2021/01/25 00:30:17;;;;;;;7.72;5.68;;;-1.10;99.90;;;;;;5193503;22;20234;-70
2021/01/25 00:32:43;;;;;;;7.30;5.32;;;-1.20;99.90;;;;;;5003756;28;20198;-70
2021/01/25 00:35:11;;;;;;;9.98;5.47;;;-1.20;99.90;;;;;;5011739;28;20582;-70
2021/01/25 00:37:37;;;;;;;10.10;5.78;;;-1.20;99.90;;;;;;5012405;28;20202;-72
2021/01/25 00:40:05;;;;;;;7.60;5.43;;;-1.20;99.90;;;;;;5011448;28;20202;-72
2021/01/25 00:42:33;;;;;;;5.90;5.15;;;-1.20;99.90;;;;;;5011482;28;20206;-72
2021/01/25 00:44:59;;;;;;;7.25;5.38;;;-1.10;99.90;;;;;;5010501;28;20313;-71
2021/01/25 00:47:25;;;;;;;7.53;5.30;;;-1.10;99.90;;;;;;5011173;28;20710;-71
2021/01/25 00:49:52;;;;;;;7.97;5.38;;;-1.10;99.90;;;;;;5012174;28;20198;-72
2021/01/25 00:52:18;;;;;;;6.97;6.38;;;-1.00;99.90;;;;;;5011717;28;20261;-71
2021/01/25 00:54:44;;;;;;;8.05;6.13;;;-1.00;99.90;;;;;;5012117;28;20710;-72
2021/01/25 00:57:10;;;;;;;6.85;5.65;;;-1.00;99.90;;;;;;5011785;28;20211;-71
2021/01/25 00:59:37;;;;;;;8.27;5.55;;;-0.90;99.90;;;;;;5011996;28;20199;-72
2021/01/25 01:02:03;;;;;;;5.90;4.43;;;-0.90;99.90;;;;;;5011020;28;20202;-71
2021/01/25 01:04:30;;;;;;;7.78;5.65;;;-0.90;99.90;;;;;;5012182;28;20289;-71
2021/01/25 01:06:56;;;;;;;6.68;5.93;;;-0.80;99.90;;;;;;5011351;28;20233;-71
2021/01/25 01:09:22;;;;;;;8.27;5.25;;;-0.80;99.90;;;;;;5011604;28;20252;-72
2021/01/25 01:11:48;;;;;;;7.55;5.30;;;-0.80;99.90;;;;;;5010982;28;20386;-71
2021/01/25 01:14:14;;;;;;;7.32;5.25;;;-0.80;99.90;;;;;;5011135;28;20202;-72
2021/01/25 01:16:41;;;;;;;5.22;4.72;;;-0.70;99.90;;;;;;5011488;28;20198;-71
2021/01/25 01:19:08;;;;;;;6.57;5.68;;;-0.70;99.90;;;;;;5011060;28;20583;-71
2021/01/25 01:21:34;;;;;;;6.20;5.10;;;-0.60;99.90;;;;;;5011174;28;20202;-72
2021/01/25 01:24:01;;;;;;;8.80;5.15;;;-0.70;99.90;;;;;;5010953;28;20203;-72
2021/01/25 01:26:27;;;;;;;11.63;5.53;;;-0.70;99.90;;;;;;5010424;28;20712;-71
2021/01/25 01:28:53;;;;;;;5.65;5.15;;;-0.80;99.90;;;;;;5010466;28;20226;-71
2021/01/25 01:31:20;;;;;;;7.88;5.40;;;-0.80;99.90;;;;;;5030659;28;20644;-71
2021/01/25 01:33:47;;;;;;;7.20;4.47;;;-0.80;99.90;;;;;;5030361;28;20213;-71
2021/01/25 01:36:13;;;;;;;8.95;5.18;;;-0.70;99.90;;;;;;5030229;28;20230;-71
2021/01/25 01:38:39;;;;;;;6.78;4.38;;;-0.80;99.90;;;;;;5030585;28;20204;-71
2021/01/25 01:41:06;;;;;;;8.65;5.43;;;-0.80;99.90;;;;;;5030117;28;20205;-71
2021/01/25 01:43:32;;;;;;;6.00;5.35;;;-0.80;99.90;;;;;;5030158;28;20202;-71
2021/01/25 01:45:58;;;;;;;6.68;5.50;;;-0.70;99.90;;;;;;5030215;28;20225;-71
2021/01/25 01:48:25;;;;;;;6.88;5.43;;;-0.90;99.90;;;;;;5030208;28;20226;-71
2021/01/25 01:50:52;;;;;;;6.82;5.30;;;-0.80;99.90;;;;;;5030169;28;20206;-71
2021/01/25 01:53:20;;;;;;;6.68;5.10;;;-0.80;99.90;;;;;;5029800;28;20202;-71
2021/01/25 01:55:46;;;;;;;7.93;5.60;;;-0.90;99.90;;;;;;5030171;28;20245;-71
2021/01/25 01:58:15;;;;;;;6.88;5.25;;;-0.90;99.90;;;;;;5029461;28;20201;-71
2021/01/25 02:00:41;;;;;;;6.85;5.63;;;-0.90;99.90;;;;;;5029967;28;20206;-71
2021/01/25 02:03:07;;;;;;;8.07;5.80;;;-0.90;99.90;;;;;;5029137;28;20198;-71
2021/01/25 02:05:33;;;;;;;6.78;5.15;;;-1.00;99.90;;;;;;5030096;28;20226;-71
2021/01/25 02:08:01;;;;;;;7.50;5.75;;;-0.90;99.90;;;;;;5029732;28;20295;-71
2021/01/25 02:10:30;;;;;;;10.07;4.88;;;-0.80;99.90;;;;;;5029663;28;20669;-71
2021/01/25 02:12:59;;;;;;;7.45;5.20;;;-0.80;99.90;;;;;;5029240;28;20719;-71
2021/01/25 02:15:26;;;;;;;6.07;5.15;;;-0.90;99.90;;;;;;5029610;28;20228;-71
2021/01/25 02:17:53;;;;;;;7.43;5.60;;;-0.90;99.90;;;;;;5029760;28;20578;-71
2021/01/25 02:20:25;;;;;;;9.93;5.18;;;-0.80;99.90;;;;;;5029733;28;20198;-71
2021/01/25 02:23:31;;;;;;;6.50;5.30;;;-0.80;99.90;;;;;;5029075;28;20217;-71
2021/01/25 02:26:05;;;;;;;8.90;5.28;;;-0.80;99.90;;;;;;5029136;28;20244;-71
2021/01/25 02:28:32;;;;;;;7.30;5.72;;;-0.80;99.90;;;;;;5029519;28;20229;-71
2021/01/25 02:30:59;;;;;;;8.52;5.32;;;-0.80;99.90;;;;;;5028870;28;20218;-71
2021/01/25 02:33:27;;;;;;;7.28;5.72;;;-0.80;99.90;;;;;;5029474;28;20198;-72
2021/01/25 02:35:55;;;;;;;6.13;5.32;;;-0.80;99.90;;;;;;5029217;28;20222;-71
2021/01/25 02:38:22;;;;;;;8.45;5.32;;;-0.80;99.90;;;;;;5029326;28;20669;-71
2021/01/25 02:40:50;;;;;;;6.75;5.75;;;-0.80;99.90;;;;;;5029425;28;20208;-71
2021/01/25 02:43:18;;;;;;;6.47;5.25;;;-0.70;99.90;;;;;;5029983;28;20515;-71
2021/01/25 02:45:46;;;;;;;6.45;5.38;;;-0.70;99.90;;;;;;5039799;28;20226;-71
2021/01/25 02:48:12;;;;;;;6.95;4.95;;;-0.70;99.90;;;;;;5039465;28;20229;-71
2021/01/25 02:50:39;;;;;;;7.57;5.93;;;-0.70;99.90;;;;;;5034787;28;20209;-72
2021/01/25 02:53:05;;;;;;;7.32;5.45;;;-0.70;99.90;;;;;;5028511;28;20221;-71
2021/01/25 02:55:32;;;;;;;5.22;4.70;;;-0.60;99.90;;;;;;5029263;28;20715;-71
2021/01/25 02:57:59;;;;;;;9.13;6.00;;;-0.60;99.90;;;;;;5028807;28;20205;-72
2021/01/25 03:00:25;;;;;;;6.00;5.18;;;-0.60;99.90;;;;;;5029106;28;20576;-70
2021/01/25 03:02:54;;;;;;;7.10;4.90;;;-0.60;99.90;;;;;;5028653;28;20252;-71
2021/01/25 03:05:20;;;;;;;6.60;5.50;;;-0.60;99.90;;;;;;5028799;28;20257;-72
2021/01/25 03:07:49;;;;;;;5.45;4.40;;;-0.60;99.90;;;;;;5028836;28;20225;-71
2021/01/25 03:10:16;;;;;;;5.88;4.32;;;-0.60;99.90;;;;;;5028166;28;20279;-71
2021/01/25 03:12:42;;;;;;;4.35;3.55;;;-0.60;99.90;;;;;;5028375;28;20615;-71
2021/01/25 03:15:11;;;;;;;5.07;4.10;;;-0.60;99.90;;;;;;5028370;28;20720;-71
2021/01/25 03:17:37;;;;;;;4.60;4.10;;;-0.60;99.90;;;;;;5028657;28;20209;-71
2021/01/25 03:20:06;;;;;;;4.80;4.15;;;-0.70;99.90;;;;;;5028459;28;20272;-71
2021/01/25 03:22:32;;;;;;;5.22;4.07;;;-0.60;99.90;;;;;;5028302;28;20551;-71
2021/01/25 03:24:58;;;;;;;6.78;3.72;;;-0.60;99.90;;;;;;5028888;28;20253;-71
2021/01/25 03:27:24;;;;;;;3.08;2.70;;;-0.60;99.90;;;;;;5028456;28;20229;-71
2021/01/25 03:29:51;;;;;;;4.30;3.88;;;-0.60;99.90;;;;;;5028677;28;20595;-71
2021/01/25 03:32:17;;;;;;;3.75;3.45;;;-0.50;99.90;;;;;;5028222;28;20202;-71
2021/01/25 03:34:43;;;;;;;3.22;2.85;;;-0.50;99.90;;;;;;5028584;28;20221;-71
2021/01/25 03:37:10;;;;;;;4.80;3.70;;;-0.50;99.90;;;;;;5028431;28;20205;-71
2021/01/25 03:39:37;;;;;;;8.95;3.78;;;-0.50;99.90;;;;;;5029112;28;20232;-71
2021/01/25 03:42:04;;;;;;;5.30;3.55;;;-0.60;99.90;;;;;;5027895;28;20204;-71
2021/01/25 03:44:30;;;;;;;3.85;3.55;;;-0.60;99.90;;;;;;5028545;28;20225;-71
2021/01/25 03:46:56;;;;;;;4.13;3.35;;;-0.60;99.90;;;;;;5028408;28;20587;-71
2021/01/25 03:49:23;;;;;;;4.88;3.40;;;-0.60;99.90;;;;;;5028483;28;20213;-71
2021/01/25 03:51:49;;;;;;;5.93;3.75;;;-0.60;99.90;;;;;;5027703;28;20202;-71
2021/01/25 03:54:16;;;;;;;4.07;3.60;;;-0.50;99.90;;;;;;5028293;28;20210;-71
2021/01/25 03:56:44;;;;;;;5.25;4.05;;;-0.60;99.90;;;;;;5028658;28;20276;-71
2021/01/25 03:59:10;;;;;;;4.10;3.65;;;-0.60;99.90;;;;;;5028251;28;20198;-71
2021/01/25 04:01:36;;;;;;;4.07;3.22;;;-0.60;99.90;;;;;;5027630;28;20205;-71
2021/01/25 04:04:02;;;;;;;6.13;3.95;;;-0.60;99.90;;;;;;5028097;28;20236;-71
2021/01/25 04:06:29;;;;;;;3.50;3.20;;;-0.60;99.90;;;;;;5028095;28;20229;-71
2021/01/25 04:08:55;;;;;;;4.32;3.50;;;-0.70;99.90;;;;;;5028117;28;20205;-71
2021/01/25 04:11:22;;;;;;;3.88;3.22;;;-0.70;99.90;;;;;;5028048;28;20209;-71
2021/01/25 04:13:48;;;;;;;4.53;3.47;;;-0.70;99.90;;;;;;5027880;28;20213;-71
2021/01/25 04:16:14;;;;;;;5.65;3.40;;;-0.70;99.90;;;;;;5028186;28;20226;-71
2021/01/25 04:18:41;;;;;;;4.88;3.40;;;-0.70;99.90;;;;;;5028036;28;20205;-71
2021/01/25 04:21:07;;;;;;;5.18;3.63;;;-0.60;99.90;;;;;;5030440;28;20217;-71
2021/01/25 04:23:33;;;;;;;5.45;3.85;;;-0.60;99.90;;;;;;5031405;28;20570;-71
2021/01/25 04:25:59;;;;;;;6.38;3.65;;;-0.50;99.90;;;;;;5031835;28;20241;-71
2021/01/25 04:28:26;;;;;;;5.38;3.30;;;-0.50;99.90;;;;;;5031923;28;20589;-72
2021/01/25 04:30:52;;;;;;;4.57;4.18;;;-0.50;99.90;;;;;;5030669;28;20465;-71
2021/01/25 04:33:19;;;;;;;5.43;4.15;;;-0.40;99.90;;;;;;5030921;28;20236;-72
2021/01/25 04:35:45;;;;;;;8.65;3.80;;;-0.50;99.90;;;;;;5031619;28;20221;-72
2021/01/25 04:38:11;;;;;;;7.90;4.07;;;-0.50;99.90;;;;;;5031438;28;20202;-72
2021/01/25 04:40:37;;;;;;;3.88;3.47;;;-0.40;99.90;;;;;;5019993;28;20194;-72
2021/01/25 04:43:04;;;;;;;4.00;3.63;;;-0.50;99.90;;;;;;5021111;28;20610;-72
2021/01/25 04:45:31;;;;;;;3.85;3.45;;;-0.40;99.90;;;;;;5020721;28;20716;-72
2021/01/25 04:47:58;;;;;;;4.18;3.78;;;-0.40;99.90;;;;;;5017708;28;20306;-71
2021/01/25 04:50:25;;;;;;;8.07;3.70;;;-0.50;99.90;;;;;;5021383;28;20225;-73
2021/01/25 04:52:53;;;;;;;3.75;3.40;;;-0.50;99.90;;;;;;5021947;28;20198;-72
2021/01/25 04:55:19;;;;;;;4.13;3.60;;;-0.60;99.90;;;;;;5020736;28;20225;-72
2021/01/25 04:57:46;;;;;;;3.90;3.50;;;-0.60;99.90;;;;;;5020954;28;20190;-72
2021/01/25 05:00:16;;;;;;;4.60;4.20;;;-0.50;99.90;;;;;;5029661;28;20229;-71
2021/01/25 05:02:43;;;;;;;7.03;4.57;;;-0.60;99.90;;;;;;5030620;28;20772;-72
2021/01/25 05:05:10;;;;;;;5.30;3.67;;;-0.50;99.90;;;;;;5031383;28;21017;-72
2021/01/25 05:07:37;;;;;;;7.72;4.30;;;-0.50;99.90;;;;;;5031002;28;20302;-73
2021/01/25 05:10:06;;;;;;;5.93;3.92;;;-0.40;99.90;;;;;;5031117;28;20665;-72
2021/01/25 05:12:42;;;;;;;4.47;3.80;;;-0.50;99.90;;;;;;5021831;28;20189;-72
2021/01/25 05:15:09;;;;;;;4.97;4.40;;;-0.50;99.90;;;;;;5020785;28;20552;-74
2021/01/25 05:17:37;;;;;;;5.00;3.75;;;-0.50;99.90;;;;;;5019640;28;20202;-72
2021/01/25 05:20:07;;;;;;;4.40;4.00;;;-0.50;99.90;;;;;;5021030;28;20233;-72
2021/01/25 05:22:37;;;;;;;6.07;3.60;;;-0.40;99.90;;;;;;5021405;28;20193;-71
2021/01/25 05:25:05;;;;;;;6.30;4.40;;;-0.40;99.90;;;;;;5020755;28;20438;-70
2021/01/25 05:27:31;;;;;;;5.60;4.60;;;-0.40;99.90;;;;;;5010166;28;20651;-70
2021/01/25 05:30:07;;;;;;;4.85;3.90;;;-0.40;99.90;;;;;;5021544;28;20232;-70
2021/01/25 05:32:33;;;;;;;4.82;3.65;;;-0.30;99.90;;;;;;5027682;28;20201;-71
2021/01/25 05:35:04;;;;;;;5.50;3.75;;;-0.30;99.90;;;;;;5030288;28;20226;-71
2021/01/25 05:37:30;;;;;;;4.50;3.50;;;-0.30;99.90;;;;;;5030656;28;20232;-71
2021/01/25 05:39:57;;;;;;;11.57;3.97;;;-0.30;99.90;;;;;;5030341;28;20805;-71
2021/01/25 05:42:32;;;;;;;5.78;3.30;;;-0.20;99.90;;;;;;5029949;28;20270;-71
2021/01/25 05:45:04;;;;;;;4.05;3.50;;;-0.30;99.90;;;;;;5030683;28;20225;-70
2021/01/25 05:47:31;;;;;;;4.28;3.22;;;-0.30;99.90;;;;;;5030351;28;20225;-71
2021/01/25 05:49:57;;;;;;;5.05;3.75;;;-0.30;99.90;;;;;;5030545;28;20197;-71
2021/01/25 05:52:24;;;;;;;5.68;3.58;;;-0.30;99.90;;;;;;5030177;28;20206;-70
2021/01/25 05:54:50;;;;;;;6.57;3.70;;;-0.30;99.90;;;;;;5030478;28;20321;-71
2021/01/25 05:57:16;;;;;;;6.65;4.00;;;-0.30;99.90;;;;;;5030324;28;20732;-71
2021/01/25 05:59:42;;;;;;;4.95;3.80;;;-0.30;99.90;;;;;;5030183;28;20202;-71
2021/01/25 06:02:09;;;;;;;6.63;4.20;;;-0.30;99.90;;;;;;5030551;28;20244;-70
2021/01/25 06:04:35;;;;;;;5.95;3.88;;;-0.40;99.90;;;;;;5049592;28;20569;-70
2021/01/25 06:07:05;;;;;;;4.72;3.72;;;-0.40;99.90;;;;;;5049850;28;20212;-71
2021/01/25 06:09:53;;;;;;;3.70;3.13;;;-0.30;99.90;;;;;;5050321;28;20233;-71
2021/01/25 06:12:24;;;;;;;7.00;4.03;;;-0.40;99.90;;;;;;5050004;28;20197;-70
2021/01/25 06:14:55;;;;;;;5.18;3.25;;;-0.50;99.90;;;;;;5049867;28;20237;-71
2021/01/25 06:17:24;;;;;;;6.70;3.55;;;-0.50;99.90;;;;;;5050141;28;20197;-70
2021/01/25 06:19:50;;;;;;;4.75;4.25;;;-0.60;99.90;;;;;;5049745;28;20204;-70
2021/01/25 06:22:18;;;;;;;6.05;4.18;;;-0.70;99.90;;;;;;5049565;28;20205;-70
2021/01/25 06:24:46;;;;;;;4.28;3.88;;;-0.80;99.90;;;;;;5049631;28;20229;-70
2021/01/25 06:27:14;;;;;;;3.70;3.33;;;-0.90;99.90;;;;;;5049703;28;20916;-70
2021/01/25 06:29:43;;;;;;;4.38;3.42;;;-0.90;99.90;;;;;;5117571;22;20230;-69
2021/01/25 06:32:10;;;;;;;3.72;3.33;;;-1.00;99.90;;;;;;5034389;28;20213;-69
2021/01/25 06:34:37;;;;;;;9.20;3.13;;;-1.00;99.90;;;;;;5030567;28;20253;-71
2021/01/25 06:37:05;;;;;;;10.38;4.10;;;-1.00;99.90;;;;;;5039089;28;20213;-68
2021/01/25 06:39:32;;;;;;;7.22;3.88;;;-0.90;99.90;;;;;;5050028;28;20533;-69
2021/01/25 06:42:04;;;;;;;4.00;3.70;;;-1.00;99.90;;;;;;5049397;28;20205;-69
2021/01/25 06:44:32;;;;;;;9.23;3.90;;;-0.90;99.90;;;;;;5049673;28;20213;-70
2021/01/25 06:47:01;;;;;;;7.28;3.30;;;-0.90;99.90;;;;;;5049764;28;20298;-70
2021/01/25 06:49:29;;;;;;;5.82;3.75;;;-0.90;99.90;;;;;;5049792;28;20212;-70
2021/01/25 06:51:56;;;;;;;8.05;4.03;;;-0.90;99.90;;;;;;5049086;28;20204;-70
2021/01/25 06:54:24;;;;;;;4.60;4.00;;;-0.90;99.90;;;;;;5048313;28;20205;-69
2021/01/25 06:56:52;;;;;;;5.93;3.55;;;-0.80;99.90;;;;;;5046876;28;20731;-69
2021/01/25 06:59:21;;;;;;;8.75;3.92;;;-0.70;99.90;;;;;;5046678;28;20267;-69
2021/01/25 07:01:50;;;;;;;9.88;5.28;;;-0.70;99.90;;;;;;5046663;28;20221;-69
2021/01/25 07:04:19;;;;;;;6.93;4.10;;;-0.70;99.90;;;;;;5048728;28;20584;-69
2021/01/25 07:06:50;;;;;;;11.73;4.63;;;-0.70;99.90;;;;;;5049481;28;20204;-70
2021/01/25 07:09:26;;;;;;;9.85;4.43;;;-0.80;99.90;;;;;;5049099;28;20299;-69
2021/01/25 07:11:54;;;;;;;6.25;4.45;;;-0.80;99.90;;;;;;5049046;28;20196;-70
2021/01/25 07:14:24;;;;;;;6.93;4.50;;;-0.60;99.90;;;;;;5049202;28;20266;-70
2021/01/25 07:16:53;;;;;;;7.32;5.35;;;-0.60;99.90;;;;;;5049570;28;20587;-69
2021/01/25 07:19:19;;;;;;;5.25;3.80;;;-0.60;99.90;;;;;;5049332;28;20205;-70
2021/01/25 07:21:47;;;;;;;5.70;4.40;;;-0.60;99.90;;;;;;5048479;28;20201;-71
2021/01/25 07:24:19;;;;;;;5.47;4.10;;;-0.60;99.90;;;;;;5048956;28;20622;-69
2021/01/25 07:26:45;;;;;;;10.65;6.45;;;-0.60;99.90;;;;;;5048927;28;20204;-70
2021/01/25 07:29:12;;;;;;;6.68;4.88;;;-0.60;99.90;;;;;;5048580;28;20248;-69
2021/01/25 07:31:39;;;;;;;7.75;4.05;;;-0.60;99.90;;;;;;5048273;28;20232;-70
2021/01/25 07:34:08;;;;;;;11.60;5.10;;;-0.50;99.90;;;;;;5049237;28;20201;-69
2021/01/25 07:36:35;;;;;;;5.03;4.32;;;-0.50;99.90;;;;;;5049063;28;20259;-70
2021/01/25 07:39:03;;;;;;;5.45;4.10;;;-0.40;99.90;;;;;;5048949;28;20722;-70
2021/01/25 07:41:30;;;;;;;6.40;4.53;;;-0.40;99.90;;;;;;5048706;28;20684;-70
2021/01/25 07:43:57;;;;;;;7.43;4.78;;;-0.40;99.90;;;;;;5048908;28;20254;-70
2021/01/25 07:46:23;;;;;;;6.68;4.60;;;-0.30;99.90;;;;;;5049177;28;20224;-70
2021/01/25 07:48:52;;;;;;;9.35;4.00;;;-0.30;99.90;;;;;;5049056;28;20228;-69
2021/01/25 07:51:19;;;;;;;4.78;4.20;;;-0.20;99.90;;;;;;5048744;28;20205;-70
2021/01/25 07:53:45;;;;;;;6.65;4.55;;;-0.20;99.90;;;;;;5048763;28;20197;-70
2021/01/25 07:56:14;;;;;;;6.50;4.07;;;-0.20;99.90;;;;;;5051619;28;20221;-69
2021/01/25 07:58:41;;;;;;;6.60;6.00;;;-0.20;99.90;;;;;;5052491;28;20668;-69
2021/01/25 08:01:12;;;;;;;5.15;3.97;;;-0.20;99.90;;;;;;5052485;28;20200;-69
2021/01/25 08:03:42;;;;;;;8.98;4.40;;;-0.10;99.90;;;;;;5052313;28;20205;-70
2021/01/25 08:06:11;;;;;;;7.97;4.20;;;-0.10;99.90;;;;;;5052896;28;20224;-69
2021/01/25 08:08:38;;;;;;;4.80;4.40;;;-0.10;99.90;;;;;;5052766;28;20700;-69
2021/01/25 08:11:07;;;;;;;6.63;4.30;;;0.00;99.90;;;;;;5045043;28;20642;-68
2021/01/25 08:13:38;;;;;;;6.10;4.68;;;0.00;99.90;;;;;;5025261;28;20209;-69
2021/01/25 08:16:11;;;;;;;5.32;4.30;;;0.00;99.90;;;;;;5030908;28;20595;-69
2021/01/25 08:18:42;;;;;;;4.82;3.95;;;0.00;99.90;;;;;;5029758;28;20682;-69
2021/01/25 08:21:13;;;;;;;5.95;3.47;;;0.00;99.90;;;;;;5030489;28;20230;-68
2021/01/25 08:23:43;;;;;;;4.38;3.97;;;0.10;99.90;;;;;;5030550;28;20205;-69
2021/01/25 08:26:10;;;;;;;5.30;3.95;;;0.10;99.90;;;;;;5030878;28;20323;-69
2021/01/25 08:28:42;;;;;;;8.63;4.00;;;0.20;99.90;;;;;;5029533;28;20317;-69
2021/01/25 08:31:11;;;;;;;7.80;3.70;;;0.30;99.90;;;;;;5030877;28;20217;-69
2021/01/25 08:33:41;;;;;;;5.60;4.50;;;0.30;99.90;;;;;;5029610;28;20677;-69
2021/01/25 08:36:09;;;;;;;5.90;4.90;;;0.30;99.90;;;;;;5031339;28;20260;-69
2021/01/25 08:38:37;;;;;;;4.15;3.75;;;0.50;99.90;;;;;;5029369;28;20221;-69
2021/01/25 08:41:17;;;;;;;6.75;4.07;;;0.60;99.90;;;;;;5030317;28;20206;-68
2021/01/25 08:43:52;;;;;;;5.72;4.10;;;0.70;99.90;;;;;;5029876;28;20601;-69
2021/01/25 08:46:19;;;;;;;6.30;4.30;;;0.90;99.90;;;;;;5030757;28;20236;-69
2021/01/25 08:48:46;;;;;;;5.05;4.10;;;1.00;99.90;;;;;;5029295;28;20633;-67
2021/01/25 08:51:16;;;;;;;4.55;4.15;;;1.00;99.90;;;;;;5031220;28;20206;-69
2021/01/25 08:53:44;;;;;;;6.78;4.47;;;1.10;99.90;;;;;;5030525;28;20358;-69
2021/01/25 08:56:13;;;;;;;4.07;3.58;;;1.20;99.90;;;;;;5030164;28;20229;-69
2021/01/25 08:58:40;;;;;;;4.57;3.50;;;1.30;99.90;;;;;;5029403;28;20614;-69
2021/01/25 09:01:18;;;;;;;6.00;3.35;;;1.20;99.90;;;;;;5030344;28;20202;-69
2021/01/25 09:03:44;;;;;;;4.60;3.60;;;1.20;99.90;;;;;;5029619;28;20201;-69
2021/01/25 09:06:11;;;;;;;3.53;3.10;;;1.20;99.90;;;;;;5029404;28;20252;-69
2021/01/25 09:08:38;;;;;;;3.58;3.22;;;1.30;99.90;;;;;;5027778;28;20588;-69
2021/01/25 09:11:05;;;;;;;7.75;3.65;;;1.40;99.90;;;;;;5030337;28;20209;-67
2021/01/25 09:13:31;;;;;;;6.65;3.72;;;1.60;99.90;;;;;;5029088;28;20605;-68
2021/01/25 09:15:58;;;;;;;3.38;3.08;;;1.70;99.90;;;;;;5029857;28;20709;-68
2021/01/25 09:18:25;;;;;;;3.53;3.22;;;1.80;99.90;;;;;;5029746;28;20204;-68
2021/01/25 09:20:51;;;;;;;3.92;2.88;;;1.80;99.90;;;;;;5028119;28;20202;-68
2021/01/25 09:23:18;;;;;;;4.57;3.00;;;1.80;99.90;;;;;;5029616;28;20205;-69
2021/01/25 09:25:45;;;;;;;3.50;3.20;;;1.70;99.90;;;;;;5029179;28;20770;-69
2021/01/25 09:28:12;;;;;;;3.50;2.90;;;1.60;99.90;;;;;;5029863;28;20249;-69
2021/01/25 09:30:38;;;;;;;3.42;3.13;;;1.60;99.90;;;;;;5027811;28;20617;-69
2021/01/25 09:33:05;;;;;;;3.05;2.85;;;1.70;99.90;;;;;;5029222;28;20626;-68
2021/01/25 09:35:32;;;;;;;4.25;3.15;;;1.80;99.90;;;;;;5029647;28;20229;-68
2021/01/25 09:37:59;;;;;;;4.07;2.80;;;2.00;99.90;;;;;;5029707;28;20243;-68
2021/01/25 09:40:26;;;;;;;4.00;3.10;;;2.10;99.90;;;;;;5027667;28;20212;-68
2021/01/25 09:42:52;;;;;;;4.40;4.00;;;2.40;99.90;;;;;;5028805;28;20559;-69
2021/01/25 09:45:19;;;;;;;5.03;3.53;;;2.80;99.90;;;;;;5029710;28;20222;-68
2021/01/25 09:47:46;;;;;;;7.47;3.72;;;3.30;99.90;;;;;;5029046;28;20635;-67
2021/01/25 09:50:15;;;;;;;4.78;3.45;;;3.60;99.90;;;;;;5027534;28;20201;-70
2021/01/25 09:52:42;;;;;;;3.00;2.80;;;4.10;99.90;;;;;;5028991;28;20574;-68
2021/01/25 09:55:10;;;;;;;3.10;2.75;;;4.30;99.90;;;;;;5028493;28;20232;-69
2021/01/25 09:57:36;;;;;;;4.20;3.22;;;4.30;99.90;;;;;;5029171;28;20194;-68
2021/01/25 10:00:03;;;;;;;5.13;3.20;;;4.20;99.90;;;;;;5027115;28;20202;-68
2021/01/25 10:02:30;;;;;;;3.42;3.13;;;4.00;99.90;;;;;;5028806;28;20213;-69
2021/01/25 10:04:56;;;;;;;3.90;3.13;;;3.70;99.90;;;;;;5028761;28;20229;-69
2021/01/25 10:07:22;;;;;;;3.00;2.70;;;3.60;99.90;;;;;;5028864;28;20276;-68
2021/01/25 10:09:54;;;;;;;2.72;2.50;;;3.60;99.90;;;;;;5027562;28;20624;-69
2021/01/25 10:12:20;;;;;;;3.88;2.80;;;3.80;99.90;;;;;;5028208;28;20214;-68
2021/01/25 10:14:46;;;;;;;3.33;2.50;;;4.10;99.90;;;;;;5028745;28;20567;-68
2021/01/25 10:17:13;;;;;;;3.75;2.70;;;4.30;99.90;;;;;;5028639;28;20202;-68
2021/01/25 10:19:39;;;;;;;2.92;2.70;;;4.60;99.90;;;;;;5026961;28;20212;-68
2021/01/25 10:22:05;;;;;;;3.25;2.75;;;4.70;99.90;;;;;;5028389;28;20206;-68
2021/01/25 10:24:31;;;;;;;3.83;2.30;;;4.80;99.90;;;;;;5027865;28;20309;-68
2021/01/25 10:26:58;;;;;;;2.50;2.30;;;4.80;99.90;;;;;;5028826;28;20562;-69
2021/01/25 10:29:25;;;;;;;3.35;2.80;;;4.60;99.90;;;;;;5026167;28;20681;-68
2021/01/25 10:31:51;;;;;;;4.82;2.75;;;4.50;99.90;;;;;;5028164;28;20276;-68
2021/01/25 10:34:17;;;;;;;4.82;2.60;;;4.30;99.90;;;;;;5023312;28;20570;-68
2021/01/25 10:36:43;;;;;;;4.70;2.88;;;4.20;99.90;;;;;;5028952;28;20264;-67
2021/01/25 10:39:09;;;;;;;3.38;2.85;;;4.00;99.90;;;;;;5029279;28;20636;-67
2021/01/25 10:41:36;;;;;;;3.78;2.88;;;3.80;99.90;;;;;;5024801;28;20206;-68
2021/01/25 10:44:03;;;;;;;4.78;3.53;;;3.70;99.90;;;;;;5029216;28;20580;-68
2021/01/25 10:46:29;;;;;;;4.93;2.85;;;3.70;99.90;;;;;;5028225;28;20291;-68
2021/01/25 10:48:55;;;;;;;3.35;2.42;;;3.80;99.90;;;;;;5028803;28;20226;-68
2021/01/25 10:51:21;;;;;;;2.65;2.45;;;4.00;99.90;;;;;;5029076;28;20581;-68
2021/01/25 10:53:47;;;;;;;4.80;3.08;;;4.20;99.90;;;;;;5028657;28;20347;-69
2021/01/25 10:56:14;;;;;;;3.97;2.50;;;4.20;99.90;;;;;;5029310;28;20217;-68
2021/01/25 10:58:40;;;;;;;5.35;2.30;;;4.40;99.90;;;;;;5028435;28;20206;-69
2021/01/25 11:01:07;;;;;;;2.70;2.33;;;4.30;99.90;;;;;;5028626;28;20206;-68
2021/01/25 11:03:36;;;;;;;2.95;2.30;;;4.20;99.90;;;;;;5042226;28;20328;-68
2021/01/25 11:06:03;;;;;;;3.17;2.70;;;4.10;99.90;;;;;;5048135;28;20263;-68
2021/01/25 11:08:29;;;;;;;2.92;2.38;;;4.00;99.90;;;;;;5041851;28;20221;-68
2021/01/25 11:10:55;;;;;;;3.35;3.05;;;3.90;99.90;;;;;;5046615;28;20255;-68
2021/01/25 11:13:21;;;;;;;3.00;2.72;;;3.90;99.90;;;;;;5045559;28;20266;-68
2021/01/25 11:15:48;;;;;;;2.40;2.20;;;3.90;99.90;;;;;;5046574;28;20297;-68
2021/01/25 11:18:15;;;;;;;3.90;2.70;;;4.00;99.90;;;;;;5043202;28;20193;-67
2021/01/25 11:20:42;;;;;;;4.10;2.42;;;4.10;99.90;;;;;;5048530;28;20193;-68
2021/01/25 11:23:08;;;;;;;5.30;2.63;;;4.00;99.90;;;;;;5048060;28;20193;-68
2021/01/25 11:25:34;;;;;;;4.75;2.78;;;4.00;99.90;;;;;;5042924;28;20236;-68
2021/01/25 11:28:00;;;;;;;2.90;2.65;;;4.00;99.90;;;;;;5048545;28;20225;-69
2021/01/25 11:30:27;;;;;;;3.88;2.70;;;4.00;99.90;;;;;;5047835;28;20235;-69
2021/01/25 11:32:53;;;;;;;4.03;2.90;;;4.40;99.90;;;;;;5047579;28;20198;-69
2021/01/25 11:35:20;;;;;;;4.97;3.15;;;5.20;99.90;;;;;;5048292;28;20216;-69
2021/01/25 11:37:46;;;;;;;2.92;2.63;;;5.60;99.90;;;;;;5048132;28;20189;-68
2021/01/25 11:40:13;;;;;;;4.35;3.50;;;5.60;99.90;;;;;;5047911;28;20197;-68
2021/01/25 11:42:40;;;;;;;4.57;3.20;;;5.60;99.90;;;;;;5047604;28;20197;-67
2021/01/25 11:45:07;;;;;;;3.30;2.90;;;5.50;99.90;;;;;;5047908;28;20224;-68
2021/01/25 11:47:33;;;;;;;5.32;2.50;;;5.40;99.90;;;;;;5047996;28;20221;-68
2021/01/25 11:49:59;;;;;;;5.15;3.20;;;5.20;99.90;;;;;;5048073;28;20204;-68
2021/01/25 11:52:26;;;;;;;4.50;2.75;;;5.10;99.90;;;;;;5047877;28;20193;-68
2021/01/25 11:54:53;;;;;;;2.92;2.50;;;5.00;99.90;;;;;;5047521;28;20221;-68
2021/01/25 11:57:19;;;;;;;2.85;2.42;;;4.80;99.90;;;;;;5048188;28;20366;-68
2021/01/25 11:59:46;;;;;;;2.90;2.38;;;4.50;99.90;;;;;;5048063;28;20200;-68
2021/01/25 12:02:12;;;;;;;3.30;2.22;;;4.50;99.90;;;;;;5047638;28;20300;-68
2021/01/25 12:04:39;;;;;;;3.33;2.80;;;4.40;99.90;;;;;;5048300;28;20221;-68
2021/01/25 12:07:05;;;;;;;2.50;2.05;;;4.30;99.90;;;;;;5048470;28;20224;-69
2021/01/25 12:09:32;;;;;;;4.63;2.80;;;4.20;99.90;;;;;;5048190;28;20213;-67
2021/01/25 12:12:00;;;;;;;4.97;3.30;;;4.20;99.90;;;;;;5025687;28;21053;-68
2021/01/25 12:14:26;;;;;;;2.88;2.58;;;4.20;99.90;;;;;;5026576;28;20263;-68
2021/01/25 12:16:54;;;;;;;3.78;2.55;;;4.20;99.90;;;;;;5027149;28;20700;-68
2021/01/25 12:19:20;;;;;;;4.35;2.55;;;4.20;99.90;;;;;;5022048;28;20202;-68
2021/01/25 12:21:46;;;;;;;3.58;2.72;;;4.10;99.90;;;;;;5027818;28;20670;-69
2021/01/25 12:24:13;;;;;;;3.97;2.75;;;4.10;99.90;;;;;;5027037;28;20206;-69
2021/01/25 12:26:40;;;;;;;4.47;3.10;;;4.00;99.90;;;;;;5028513;28;20206;-69
2021/01/25 12:29:06;;;;;;;2.83;2.55;;;4.00;99.90;;;;;;5027729;28;20252;-69
2021/01/25 12:31:33;;;;;;;2.95;2.65;;;4.00;99.90;;;;;;5225141;22;20227;-70
2021/01/25 12:33:59;;;;;;;5.47;3.10;;;3.80;99.90;;;;;;5088363;28;20200;-70
2021/01/25 12:36:25;;;;;;;3.05;2.80;;;3.50;99.90;;;;;;5088839;28;20707;-70
2021/01/25 12:38:51;;;;;;;2.35;2.15;;;3.40;99.90;;;;;;5088780;28;20199;-69
2021/01/25 12:41:17;;;;;;;4.03;2.40;;;3.30;99.90;;;;;;5090134;28;20299;-70
2021/01/25 12:43:44;;;;;;;2.40;2.15;;;3.30;99.90;;;;;;5092243;28;20196;-70
2021/01/25 12:46:11;;;;;;;3.80;3.20;;;3.20;99.90;;;;;;5092696;28;20227;-70
2021/01/25 12:48:37;;;;;;;2.90;2.60;;;3.20;99.90;;;;;;5091929;28;20224;-70
2021/01/25 12:51:04;;;;;;;2.92;2.72;;;3.30;99.90;;;;;;5092300;28;20207;-69